JAL2465 RJOO-RJKA
Flight info
| Callsign | JAL2465 |
|---|---|
| Flight time | 1h 28m |
| Altitude | 32000 |
| Route | TIGER MAIKO AWAJI Y232 KRE SUKMO Y50 DONKY Y75 ALTAI Y758 TUMGI |
| Aircraft | B738/M-SDGIJ1LRWY/SB1 |
Departure
| Time | 2026-05-04 11:38 |
|---|---|
| Airport | Osaka Itami International Airport (RJOO) |
Arrival
| Time | 2026-05-04 13:07 |
|---|---|
| Airport | Amami Airport (RJKA) |
| Time | Latitude | Longitude | Altitude | Speed | Heading |
|---|---|---|---|---|---|
| 2026-05-04 11:01 | 34.79272 | 135.43710 | 54 ft | 0 kts | 160° |
| 2026-05-04 11:26 | 34.79287 | 135.43703 | 54 ft | 2 kts | 160° |
| 2026-05-04 11:27 | 34.79349 | 135.43712 | 57 ft | 0 kts | 236° |
| 2026-05-04 11:31 | 34.79280 | 135.43585 | 54 ft | 10 kts | 217° |
| 2026-05-04 11:33 | 34.78596 | 135.44177 | 37 ft | 21 kts | 135° |
| 2026-05-04 11:33 | 34.78493 | 135.44301 | 40 ft | 15 kts | 135° |
| 2026-05-04 11:33 | 34.78403 | 135.44336 | 40 ft | 14 kts | 181° |
| 2026-05-04 11:34 | 34.78281 | 135.44334 | 39 ft | 19 kts | 180° |
| 2026-05-04 11:34 | 34.78164 | 135.44353 | 37 ft | 16 kts | 145° |
| 2026-05-04 11:34 | 34.78065 | 135.44470 | 35 ft | 21 kts | 135° |
| 2026-05-04 11:34 | 34.77959 | 135.44598 | 33 ft | 21 kts | 135° |
| 2026-05-04 11:35 | 34.77851 | 135.44730 | 31 ft | 21 kts | 135° |
| 2026-05-04 11:35 | 34.77747 | 135.44856 | 30 ft | 20 kts | 135° |
| 2026-05-04 11:35 | 34.77647 | 135.44977 | 30 ft | 20 kts | 135° |
| 2026-05-04 11:35 | 34.77545 | 135.45100 | 28 ft | 20 kts | 135° |
| 2026-05-04 11:36 | 34.77462 | 135.45200 | 28 ft | 12 kts | 135° |
| 2026-05-04 11:36 | 34.77400 | 135.45273 | 28 ft | 15 kts | 143° |
| 2026-05-04 11:36 | 34.77298 | 135.45300 | 27 ft | 14 kts | 204° |
| 2026-05-04 11:36 | 34.77254 | 135.45226 | 27 ft | 9 kts | 248° |
| 2026-05-04 11:37 | 34.77241 | 135.45160 | 27 ft | 5 kts | 296° |
| 2026-05-04 11:37 | 34.77259 | 135.45138 | 27 ft | 4 kts | 316° |
| 2026-05-04 11:37 | 34.77375 | 135.45001 | 27 ft | 55 kts | 315° |
| 2026-05-04 11:37 | 34.77810 | 135.44472 | 31 ft | 118 kts | 315° |
| 2026-05-04 11:38 | 34.78525 | 135.43604 | 68 ft | 165 kts | 316° |
| 2026-05-04 11:38 | 34.79307 | 135.42621 | 670 ft | 167 kts | 315° |
| 2026-05-04 11:38 | 34.79814 | 135.41327 | 1264 ft | 181 kts | 282° |
| 2026-05-04 11:38 | 34.79772 | 135.39757 | 1821 ft | 199 kts | 264° |
| 2026-05-04 11:39 | 34.79071 | 135.38205 | 2307 ft | 226 kts | 227° |
| 2026-05-04 11:39 | 34.77602 | 135.37357 | 2770 ft | 253 kts | 192° |
| 2026-05-04 11:40 | 34.66167 | 135.35953 | 6927 ft | 284 kts | 214° |
| 2026-05-04 11:41 | 34.64769 | 135.34457 | 7716 ft | 266 kts | 244° |
| 2026-05-04 11:41 | 34.64106 | 135.32437 | 8452 ft | 261 kts | 261° |
| 2026-05-04 11:41 | 34.63756 | 135.30292 | 9224 ft | 259 kts | 268° |
| 2026-05-04 11:41 | 34.63985 | 135.28159 | 9916 ft | 258 kts | 294° |
| 2026-05-04 11:42 | 34.65012 | 135.26384 | 10554 ft | 264 kts | 309° |
| 2026-05-04 11:42 | 34.66139 | 135.24545 | 10875 ft | 280 kts | 298° |
| 2026-05-04 11:42 | 34.66909 | 135.22354 | 11288 ft | 293 kts | 288° |
| 2026-05-04 11:42 | 34.67482 | 135.19887 | 11660 ft | 308 kts | 283° |
| 2026-05-04 11:43 | 34.67759 | 135.17294 | 11964 ft | 325 kts | 269° |
| 2026-05-04 11:43 | 34.67135 | 135.14580 | 12338 ft | 345 kts | 247° |
| 2026-05-04 11:43 | 34.65993 | 135.11952 | 12850 ft | 354 kts | 246° |
| 2026-05-04 11:43 | 34.64899 | 135.09280 | 13605 ft | 355 kts | 248° |
| 2026-05-04 11:44 | 34.63843 | 135.06609 | 14320 ft | 357 kts | 248° |
| 2026-05-04 11:44 | 34.62751 | 135.03897 | 15116 ft | 359 kts | 246° |
| 2026-05-04 11:44 | 34.61474 | 135.01282 | 15811 ft | 366 kts | 239° |
| 2026-05-04 11:44 | 34.59774 | 134.98920 | 16583 ft | 374 kts | 227° |
| 2026-05-04 11:45 | 34.57760 | 134.96945 | 17360 ft | 378 kts | 222° |
| 2026-05-04 11:45 | 34.55601 | 134.95090 | 18070 ft | 381 kts | 220° |
| 2026-05-04 11:45 | 34.53414 | 134.93266 | 18757 ft | 383 kts | 221° |
| 2026-05-04 11:45 | 34.51216 | 134.91440 | 19432 ft | 384 kts | 221° |
| 2026-05-04 11:46 | 34.49017 | 134.89609 | 20210 ft | 381 kts | 221° |
| 2026-05-04 11:46 | 34.46848 | 134.87801 | 20901 ft | 380 kts | 222° |
| 2026-05-04 11:46 | 34.44672 | 134.85983 | 21568 ft | 379 kts | 221° |
| 2026-05-04 11:46 | 34.42509 | 134.84183 | 22158 ft | 380 kts | 222° |
| 2026-05-04 11:47 | 34.40319 | 134.82359 | 22808 ft | 378 kts | 222° |
| 2026-05-04 11:47 | 34.38170 | 134.80571 | 23385 ft | 377 kts | 222° |
| 2026-05-04 11:47 | 34.35977 | 134.78749 | 23896 ft | 379 kts | 221° |
| 2026-05-04 11:47 | 34.33803 | 134.76944 | 24457 ft | 379 kts | 222° |
| 2026-05-04 11:48 | 34.31629 | 134.75136 | 24916 ft | 382 kts | 221° |
| 2026-05-04 11:48 | 34.29465 | 134.73279 | 25510 ft | 379 kts | 223° |
| 2026-05-04 11:48 | 34.27464 | 134.71307 | 26343 ft | 368 kts | 227° |
| 2026-05-04 11:48 | 34.25695 | 134.69186 | 27226 ft | 356 kts | 231° |
| 2026-05-04 11:49 | 34.24064 | 134.66966 | 28079 ft | 347 kts | 233° |
| 2026-05-04 11:49 | 34.22534 | 134.64804 | 28814 ft | 340 kts | 232° |
| 2026-05-04 11:49 | 34.20991 | 134.62608 | 29315 ft | 339 kts | 232° |
| 2026-05-04 11:49 | 34.19471 | 134.60465 | 29852 ft | 337 kts | 232° |
| 2026-05-04 11:50 | 34.17960 | 134.58310 | 30344 ft | 336 kts | 233° |
| 2026-05-04 11:50 | 34.16449 | 134.56140 | 30738 ft | 337 kts | 234° |
| 2026-05-04 11:50 | 34.14935 | 134.53952 | 31326 ft | 332 kts | 233° |
| 2026-05-04 11:50 | 34.13452 | 134.51833 | 31907 ft | 328 kts | 233° |
| 2026-05-04 11:51 | 34.11966 | 134.49733 | 32026 ft | 332 kts | 234° |
| 2026-05-04 11:51 | 34.08934 | 134.45419 | 32049 ft | 344 kts | 233° |
| 2026-05-04 11:52 | 34.05833 | 134.40990 | 32046 ft | 343 kts | 233° |
| 2026-05-04 11:52 | 34.02775 | 134.36607 | 32053 ft | 343 kts | 233° |
| 2026-05-04 11:53 | 33.99675 | 134.32224 | 32054 ft | 346 kts | 233° |
| 2026-05-04 11:53 | 33.96585 | 134.27794 | 32057 ft | 345 kts | 233° |
| 2026-05-04 11:55 | 33.84142 | 134.10155 | 32046 ft | 345 kts | 232° |
| 2026-05-04 11:56 | 33.81028 | 134.05737 | 32042 ft | 349 kts | 233° |
| 2026-05-04 11:56 | 33.77933 | 134.01303 | 32056 ft | 344 kts | 234° |
| 2026-05-04 11:57 | 33.74805 | 133.96915 | 32042 ft | 346 kts | 233° |
| 2026-05-04 11:57 | 33.71657 | 133.92529 | 32041 ft | 349 kts | 233° |
| 2026-05-04 11:58 | 33.68529 | 133.88106 | 32055 ft | 346 kts | 233° |
| 2026-05-04 11:58 | 33.65371 | 133.83719 | 32061 ft | 347 kts | 232° |
| 2026-05-04 11:59 | 33.62277 | 133.79335 | 32066 ft | 348 kts | 233° |
| 2026-05-04 11:59 | 33.59111 | 133.74959 | 32066 ft | 347 kts | 233° |
| 2026-05-04 12:00 | 33.55987 | 133.70552 | 32068 ft | 347 kts | 233° |
| 2026-05-04 12:00 | 33.52947 | 133.66029 | 32060 ft | 350 kts | 237° |
| 2026-05-04 12:01 | 33.50193 | 133.61253 | 32060 ft | 346 kts | 238° |
| 2026-05-04 12:02 | 33.40473 | 133.44701 | 32073 ft | 349 kts | 237° |
| 2026-05-04 12:03 | 33.37675 | 133.39929 | 32073 ft | 349 kts | 237° |
| 2026-05-04 12:03 | 33.34853 | 133.35213 | 32085 ft | 350 kts | 236° |
| 2026-05-04 12:04 | 33.32044 | 133.30456 | 32091 ft | 349 kts | 236° |
| 2026-05-04 12:04 | 33.29249 | 133.25735 | 32094 ft | 350 kts | 236° |
| 2026-05-04 12:05 | 33.26387 | 133.20998 | 32093 ft | 352 kts | 235° |
| 2026-05-04 12:05 | 33.23544 | 133.16234 | 32088 ft | 352 kts | 236° |
| 2026-05-04 12:06 | 33.20739 | 133.11408 | 32090 ft | 353 kts | 236° |
| 2026-05-04 12:06 | 33.17927 | 133.06609 | 32086 ft | 355 kts | 237° |
| 2026-05-04 12:07 | 33.15093 | 133.01741 | 32080 ft | 355 kts | 237° |
| 2026-05-04 12:07 | 33.12255 | 132.96913 | 32069 ft | 357 kts | 236° |
| 2026-05-04 12:08 | 33.09407 | 132.92062 | 32067 ft | 359 kts | 236° |
| 2026-05-04 12:08 | 33.06531 | 132.87209 | 32068 ft | 358 kts | 236° |
| 2026-05-04 12:09 | 33.03660 | 132.82367 | 32069 ft | 359 kts | 236° |
| 2026-05-04 12:09 | 33.00788 | 132.77499 | 32069 ft | 358 kts | 236° |
| 2026-05-04 12:10 | 32.97932 | 132.72673 | 32072 ft | 358 kts | 236° |
| 2026-05-04 12:10 | 32.95036 | 132.67825 | 32075 ft | 359 kts | 236° |
| 2026-05-04 12:11 | 32.92192 | 132.63017 | 32075 ft | 357 kts | 236° |
| 2026-05-04 12:11 | 32.89326 | 132.58179 | 32078 ft | 356 kts | 237° |
| 2026-05-04 12:12 | 32.86456 | 132.53343 | 32075 ft | 358 kts | 237° |
| 2026-05-04 12:12 | 32.83587 | 132.48560 | 32079 ft | 356 kts | 237° |
| 2026-05-04 12:14 | 32.72102 | 132.29341 | 32082 ft | 358 kts | 236° |
| 2026-05-04 12:15 | 32.69221 | 132.24524 | 32082 ft | 356 kts | 237° |
| 2026-05-04 12:15 | 32.66228 | 132.19862 | 32082 ft | 357 kts | 230° |
| 2026-05-04 12:16 | 32.62285 | 132.16193 | 32084 ft | 368 kts | 218° |
| 2026-05-04 12:16 | 32.57885 | 132.13069 | 32078 ft | 367 kts | 217° |
| 2026-05-04 12:17 | 32.53484 | 132.09941 | 32078 ft | 369 kts | 218° |
| 2026-05-04 12:17 | 32.49117 | 132.06827 | 32081 ft | 368 kts | 218° |
| 2026-05-04 12:18 | 32.44750 | 132.03714 | 32082 ft | 368 kts | 218° |
| 2026-05-04 12:18 | 32.40316 | 132.00609 | 32077 ft | 369 kts | 218° |
| 2026-05-04 12:19 | 32.35925 | 131.97507 | 32080 ft | 367 kts | 218° |
| 2026-05-04 12:19 | 32.31519 | 131.94385 | 32079 ft | 370 kts | 218° |
| 2026-05-04 12:20 | 32.27109 | 131.91270 | 32075 ft | 368 kts | 218° |
| 2026-05-04 12:20 | 32.22730 | 131.88179 | 32079 ft | 368 kts | 218° |
| 2026-05-04 12:21 | 32.18309 | 131.85077 | 32084 ft | 368 kts | 218° |
| 2026-05-04 12:21 | 32.13896 | 131.81982 | 32081 ft | 369 kts | 217° |
| 2026-05-04 12:22 | 32.09500 | 131.78883 | 32087 ft | 365 kts | 218° |
| 2026-05-04 12:22 | 32.05116 | 131.75794 | 32081 ft | 369 kts | 217° |
| 2026-05-04 12:23 | 32.00688 | 131.72697 | 32073 ft | 370 kts | 217° |
| 2026-05-04 12:23 | 31.96311 | 131.69630 | 32078 ft | 369 kts | 218° |
| 2026-05-04 12:24 | 31.91861 | 131.66527 | 32076 ft | 372 kts | 218° |
| 2026-05-04 12:24 | 31.87428 | 131.63438 | 32080 ft | 371 kts | 218° |
| 2026-05-04 12:25 | 31.82983 | 131.60327 | 32087 ft | 370 kts | 218° |
| 2026-05-04 12:25 | 31.78589 | 131.57269 | 32083 ft | 370 kts | 218° |
| 2026-05-04 12:26 | 31.74113 | 131.54164 | 32088 ft | 371 kts | 218° |
| 2026-05-04 12:26 | 31.69686 | 131.51080 | 32093 ft | 368 kts | 218° |
| 2026-05-04 12:27 | 31.65239 | 131.47996 | 32098 ft | 371 kts | 218° |
| 2026-05-04 12:27 | 31.60771 | 131.44907 | 32100 ft | 371 kts | 218° |
| 2026-05-04 12:28 | 31.56300 | 131.41806 | 32104 ft | 372 kts | 218° |
| 2026-05-04 12:28 | 31.51857 | 131.38721 | 32116 ft | 371 kts | 218° |
| 2026-05-04 12:29 | 31.47423 | 131.35651 | 32112 ft | 372 kts | 218° |
| 2026-05-04 12:29 | 31.42940 | 131.32570 | 32108 ft | 370 kts | 218° |
| 2026-05-04 12:30 | 31.38503 | 131.29515 | 32127 ft | 373 kts | 217° |
| 2026-05-04 12:30 | 31.34019 | 131.26428 | 32112 ft | 371 kts | 218° |
| 2026-05-04 12:31 | 31.29587 | 131.23311 | 32114 ft | 372 kts | 219° |
| 2026-05-04 12:31 | 31.25117 | 131.20283 | 32124 ft | 375 kts | 218° |
| 2026-05-04 12:32 | 31.18399 | 131.15704 | 32126 ft | 370 kts | 218° |
| 2026-05-04 12:33 | 31.13937 | 131.12628 | 32125 ft | 375 kts | 219° |
| 2026-05-04 12:33 | 31.09452 | 131.09544 | 32131 ft | 373 kts | 218° |
| 2026-05-04 12:34 | 31.04998 | 131.06491 | 32128 ft | 372 kts | 219° |
| 2026-05-04 12:34 | 31.00513 | 131.03429 | 32132 ft | 373 kts | 218° |
| 2026-05-04 12:35 | 30.95995 | 131.00386 | 32126 ft | 375 kts | 218° |
| 2026-05-04 12:35 | 30.91506 | 130.97348 | 32129 ft | 373 kts | 218° |
| 2026-05-04 12:36 | 30.87012 | 130.94282 | 32128 ft | 375 kts | 219° |
| 2026-05-04 12:36 | 30.82501 | 130.91199 | 32126 ft | 372 kts | 218° |
| 2026-05-04 12:37 | 30.78005 | 130.88130 | 32125 ft | 377 kts | 219° |
| 2026-05-04 12:37 | 30.73472 | 130.85043 | 32121 ft | 376 kts | 218° |
| 2026-05-04 12:38 | 30.68974 | 130.82007 | 32120 ft | 374 kts | 218° |
| 2026-05-04 12:38 | 30.64445 | 130.78938 | 32123 ft | 377 kts | 219° |
| 2026-05-04 12:39 | 30.59922 | 130.75862 | 32120 ft | 376 kts | 219° |
| 2026-05-04 12:39 | 30.55406 | 130.72818 | 32122 ft | 376 kts | 219° |
| 2026-05-04 12:40 | 30.50873 | 130.69774 | 32119 ft | 376 kts | 218° |
| 2026-05-04 12:40 | 30.46350 | 130.66719 | 32123 ft | 377 kts | 218° |
| 2026-05-04 12:41 | 30.41800 | 130.63654 | 32122 ft | 376 kts | 218° |
| 2026-05-04 12:41 | 30.37290 | 130.60625 | 32119 ft | 376 kts | 218° |
| 2026-05-04 12:42 | 30.32762 | 130.57585 | 32125 ft | 378 kts | 219° |
| 2026-05-04 12:42 | 30.28202 | 130.54555 | 32122 ft | 376 kts | 218° |
| 2026-05-04 12:43 | 30.23672 | 130.51517 | 32125 ft | 378 kts | 219° |
| 2026-05-04 12:43 | 30.19150 | 130.48479 | 32122 ft | 374 kts | 219° |
| 2026-05-04 12:44 | 30.14633 | 130.45439 | 32121 ft | 379 kts | 219° |
| 2026-05-04 12:44 | 30.10078 | 130.42403 | 32119 ft | 375 kts | 219° |
| 2026-05-04 12:45 | 30.05548 | 130.39365 | 32117 ft | 378 kts | 219° |
| 2026-05-04 12:45 | 30.00946 | 130.36472 | 32083 ft | 373 kts | 213° |
| 2026-05-04 12:45 | 29.98538 | 130.35419 | 31774 ft | 369 kts | 211° |
| 2026-05-04 12:46 | 29.96096 | 130.34482 | 31239 ft | 367 kts | 208° |
| 2026-05-04 12:46 | 29.93708 | 130.33556 | 30746 ft | 363 kts | 209° |
| 2026-05-04 12:46 | 29.91291 | 130.32613 | 30260 ft | 365 kts | 209° |
| 2026-05-04 12:46 | 29.88867 | 130.31670 | 29702 ft | 366 kts | 208° |
| 2026-05-04 12:47 | 29.86482 | 130.30757 | 29144 ft | 364 kts | 207° |
| 2026-05-04 12:47 | 29.84093 | 130.29848 | 28574 ft | 361 kts | 207° |
| 2026-05-04 12:47 | 29.81715 | 130.28944 | 28002 ft | 359 kts | 207° |
| 2026-05-04 12:47 | 29.79360 | 130.28058 | 27443 ft | 356 kts | 207° |
| 2026-05-04 12:48 | 29.77004 | 130.27171 | 26882 ft | 354 kts | 207° |
| 2026-05-04 12:48 | 29.74662 | 130.26288 | 26321 ft | 352 kts | 207° |
| 2026-05-04 12:48 | 29.72355 | 130.25415 | 25763 ft | 350 kts | 207° |
| 2026-05-04 12:48 | 29.70048 | 130.24561 | 25206 ft | 349 kts | 206° |
| 2026-05-04 12:49 | 29.67737 | 130.23702 | 24654 ft | 346 kts | 207° |
| 2026-05-04 12:49 | 29.65466 | 130.22836 | 24105 ft | 344 kts | 207° |
| 2026-05-04 12:49 | 29.63200 | 130.21973 | 23562 ft | 343 kts | 207° |
| 2026-05-04 12:49 | 29.60920 | 130.21111 | 23015 ft | 341 kts | 207° |
| 2026-05-04 12:50 | 29.58667 | 130.20261 | 22476 ft | 340 kts | 206° |
| 2026-05-04 12:50 | 29.56417 | 130.19414 | 21937 ft | 339 kts | 206° |
| 2026-05-04 12:50 | 29.54183 | 130.18573 | 21393 ft | 338 kts | 206° |
| 2026-05-04 12:50 | 29.51945 | 130.17725 | 20846 ft | 337 kts | 206° |
| 2026-05-04 12:51 | 29.49737 | 130.16901 | 20304 ft | 336 kts | 205° |
| 2026-05-04 12:51 | 29.47489 | 130.16071 | 19757 ft | 335 kts | 206° |
| 2026-05-04 12:51 | 29.45280 | 130.15237 | 19212 ft | 334 kts | 206° |
| 2026-05-04 12:51 | 29.43072 | 130.14398 | 18674 ft | 332 kts | 206° |
| 2026-05-04 12:52 | 29.40911 | 130.13582 | 18154 ft | 330 kts | 206° |
| 2026-05-04 12:52 | 29.38741 | 130.12764 | 17633 ft | 328 kts | 206° |
| 2026-05-04 12:52 | 29.36569 | 130.11949 | 17118 ft | 326 kts | 205° |
| 2026-05-04 12:52 | 29.34431 | 130.11145 | 16612 ft | 324 kts | 206° |
| 2026-05-04 12:53 | 29.32288 | 130.10341 | 16103 ft | 323 kts | 206° |
| 2026-05-04 12:53 | 29.30150 | 130.09540 | 15599 ft | 321 kts | 206° |
| 2026-05-04 12:53 | 29.28030 | 130.08746 | 15096 ft | 320 kts | 206° |
| 2026-05-04 12:53 | 29.25896 | 130.07948 | 14594 ft | 319 kts | 206° |
| 2026-05-04 12:54 | 29.23805 | 130.07167 | 14110 ft | 317 kts | 206° |
| 2026-05-04 12:54 | 29.21692 | 130.06377 | 13671 ft | 314 kts | 205° |
| 2026-05-04 12:54 | 29.19628 | 130.05609 | 13273 ft | 310 kts | 205° |
| 2026-05-04 12:54 | 29.17599 | 130.04851 | 12812 ft | 309 kts | 205° |
| 2026-05-04 12:55 | 29.15527 | 130.04074 | 12241 ft | 311 kts | 204° |
| 2026-05-04 12:55 | 29.13471 | 130.03305 | 11748 ft | 311 kts | 204° |
| 2026-05-04 12:55 | 29.11418 | 130.02539 | 11271 ft | 311 kts | 203° |
| 2026-05-04 12:55 | 29.09349 | 130.01769 | 10792 ft | 311 kts | 202° |
| 2026-05-04 12:56 | 29.07287 | 130.01001 | 10397 ft | 308 kts | 201° |
| 2026-05-04 12:56 | 29.05284 | 130.00256 | 10206 ft | 298 kts | 202° |
| 2026-05-04 12:56 | 29.03345 | 129.99538 | 10104 ft | 286 kts | 202° |
| 2026-05-04 12:56 | 29.01458 | 129.98836 | 9828 ft | 282 kts | 201° |
| 2026-05-04 12:57 | 28.99566 | 129.98128 | 9431 ft | 283 kts | 201° |
| 2026-05-04 12:57 | 28.97673 | 129.97420 | 9066 ft | 282 kts | 201° |
| 2026-05-04 12:57 | 28.95812 | 129.96729 | 8709 ft | 282 kts | 201° |
| 2026-05-04 12:57 | 28.93946 | 129.96036 | 8352 ft | 281 kts | 201° |
| 2026-05-04 12:58 | 28.92089 | 129.95346 | 7999 ft | 280 kts | 201° |
| 2026-05-04 12:58 | 28.90226 | 129.94655 | 7641 ft | 279 kts | 201° |
| 2026-05-04 12:58 | 28.88390 | 129.93973 | 7291 ft | 277 kts | 201° |
| 2026-05-04 12:58 | 28.86557 | 129.93292 | 6941 ft | 276 kts | 201° |
| 2026-05-04 12:59 | 28.84721 | 129.92610 | 6587 ft | 275 kts | 200° |
| 2026-05-04 12:59 | 28.82889 | 129.91931 | 6235 ft | 274 kts | 200° |
| 2026-05-04 12:59 | 28.81082 | 129.91261 | 5889 ft | 273 kts | 200° |
| 2026-05-04 12:59 | 28.79276 | 129.90591 | 5542 ft | 272 kts | 200° |
| 2026-05-04 13:00 | 28.77506 | 129.89937 | 5330 ft | 265 kts | 200° |
| 2026-05-04 13:00 | 28.75762 | 129.89293 | 5253 ft | 254 kts | 200° |
| 2026-05-04 13:00 | 28.74118 | 129.88684 | 5179 ft | 244 kts | 201° |
| 2026-05-04 13:00 | 28.72518 | 129.87981 | 5028 ft | 248 kts | 208° |
| 2026-05-04 13:01 | 28.70966 | 129.87070 | 4702 ft | 253 kts | 210° |
| 2026-05-04 13:01 | 28.69379 | 129.86128 | 4417 ft | 252 kts | 210° |
| 2026-05-04 13:01 | 28.67834 | 129.85236 | 4144 ft | 250 kts | 209° |
| 2026-05-04 13:01 | 28.66289 | 129.84355 | 3893 ft | 245 kts | 208° |
| 2026-05-04 13:02 | 28.64764 | 129.83490 | 3594 ft | 240 kts | 209° |
| 2026-05-04 13:02 | 28.63283 | 129.82657 | 3337 ft | 237 kts | 208° |
| 2026-05-04 13:02 | 28.61808 | 129.81833 | 3077 ft | 234 kts | 208° |
| 2026-05-04 13:02 | 28.60340 | 129.81009 | 2833 ft | 233 kts | 208° |
| 2026-05-04 13:03 | 28.58892 | 129.80197 | 2688 ft | 224 kts | 208° |
| 2026-05-04 13:03 | 28.57521 | 129.79428 | 2513 ft | 216 kts | 208° |
| 2026-05-04 13:03 | 28.56201 | 129.78687 | 2357 ft | 209 kts | 208° |
| 2026-05-04 13:03 | 28.54890 | 129.77953 | 2160 ft | 207 kts | 208° |
| 2026-05-04 13:04 | 28.53588 | 129.77228 | 1960 ft | 205 kts | 208° |
| 2026-05-04 13:04 | 28.52354 | 129.76543 | 1783 ft | 190 kts | 208° |
| 2026-05-04 13:04 | 28.51227 | 129.75922 | 1614 ft | 173 kts | 208° |
| 2026-05-04 13:04 | 28.50168 | 129.75333 | 1377 ft | 163 kts | 208° |
| 2026-05-04 13:05 | 28.49165 | 129.74757 | 1194 ft | 161 kts | 209° |
| 2026-05-04 13:05 | 28.48148 | 129.74176 | 968 ft | 160 kts | 208° |
| 2026-05-04 13:05 | 28.47164 | 129.73634 | 745 ft | 156 kts | 208° |
| 2026-05-04 13:05 | 28.46200 | 129.73102 | 656 ft | 150 kts | 208° |
| 2026-05-04 13:06 | 28.45275 | 129.72545 | 387 ft | 153 kts | 211° |
| 2026-05-04 13:06 | 28.44349 | 129.71971 | 181 ft | 150 kts | 208° |
| 2026-05-04 13:06 | 28.43414 | 129.71448 | 24 ft | 142 kts | 207° |
| 2026-05-04 13:06 | 28.42747 | 129.71080 | 21 ft | 61 kts | 206° |
| 2026-05-04 13:07 | 28.42450 | 129.70917 | 22 ft | 32 kts | 206° |
| 2026-05-04 13:07 | 28.42305 | 129.70837 | 22 ft | 15 kts | 209° |
| 2026-05-04 13:07 | 28.42290 | 129.70754 | 22 ft | 9 kts | 297° |
| 2026-05-04 13:07 | 28.42311 | 129.70708 | 22 ft | 5 kts | 297° |
| 2026-05-04 13:08 | 28.42332 | 129.70670 | 22 ft | 6 kts | 319° |
| 2026-05-04 13:08 | 28.42391 | 129.70676 | 22 ft | 11 kts | 26° |
| 2026-05-04 13:08 | 28.42474 | 129.70723 | 22 ft | 16 kts | 26° |
| 2026-05-04 13:08 | 28.42595 | 129.70787 | 22 ft | 20 kts | 26° |
| 2026-05-04 13:09 | 28.42725 | 129.70860 | 22 ft | 19 kts | 26° |
| 2026-05-04 13:09 | 28.42849 | 129.70927 | 22 ft | 19 kts | 26° |
| 2026-05-04 13:09 | 28.42966 | 129.70991 | 22 ft | 18 kts | 26° |
| 2026-05-04 13:09 | 28.43058 | 129.71040 | 23 ft | 10 kts | 19° |
| 2026-05-04 13:10 | 28.43114 | 129.71010 | 24 ft | 10 kts | 322° |
| 2026-05-04 13:10 | 28.43149 | 129.70950 | 25 ft | 5 kts | 296° |
| 2026-05-04 13:10 | 28.43160 | 129.70926 | 26 ft | 1 kts | 295° |
| 2026-05-04 13:10 | 28.43160 | 129.70923 | 25 ft | 0 kts | 295° |